sensor_id;sensor_type;location;lat;lon;timestamp;pressure;altitude;pressure_sealevel;temperature;humidity
4346;BME280;2186;49.866;7.986;2024-03-25T00:01:55;99477.53;;;9.08;74.17
4346;BME280;2186;49.866;7.986;2024-03-25T00:04:20;99478.78;;;8.98;74.95
4346;BME280;2186;49.866;7.986;2024-03-25T00:06:49;99482.31;;;8.72;75.68
4346;BME280;2186;49.866;7.986;2024-03-25T00:09:14;99477.28;;;8.91;73.85
4346;BME280;2186;49.866;7.986;2024-03-25T00:11:43;99470.88;;;8.97;74.66
4346;BME280;2186;49.866;7.986;2024-03-25T00:14:09;99487.44;;;8.78;75.55
4346;BME280;2186;49.866;7.986;2024-03-25T00:16:35;99485.84;;;8.73;75.99
4346;BME280;2186;49.866;7.986;2024-03-25T00:19:01;99483.88;;;8.79;76.25
4346;BME280;2186;49.866;7.986;2024-03-25T00:21:27;99481.88;;;9.11;75.23
4346;BME280;2186;49.866;7.986;2024-03-25T00:23:53;99486.81;;;8.70;74.18
4346;BME280;2186;49.866;7.986;2024-03-25T00:26:24;99485.72;;;8.76;73.66
4346;BME280;2186;49.866;7.986;2024-03-25T00:28:49;99491.25;;;8.70;74.60
4346;BME280;2186;49.866;7.986;2024-03-25T00:31:15;99489.84;;;8.84;73.99
4346;BME280;2186;49.866;7.986;2024-03-25T00:33:41;99479.56;;;8.75;73.44
4346;BME280;2186;49.866;7.986;2024-03-25T00:36:06;99480.53;;;8.73;73.53
4346;BME280;2186;49.866;7.986;2024-03-25T00:38:33;99486.31;;;8.59;73.82
4346;BME280;2186;49.866;7.986;2024-03-25T00:40:58;99485.84;;;8.73;73.33
4346;BME280;2186;49.866;7.986;2024-03-25T00:43:23;99483.00;;;8.52;73.99
4346;BME280;2186;49.866;7.986;2024-03-25T00:45:49;99481.13;;;8.56;74.17
4346;BME280;2186;49.866;7.986;2024-03-25T00:48:14;99480.25;;;8.55;74.02
4346;BME280;2186;49.866;7.986;2024-03-25T00:50:40;99481.75;;;8.38;74.71
4346;BME280;2186;49.866;7.986;2024-03-25T00:53:05;99469.84;;;8.49;75.02
4346;BME280;2186;49.866;7.986;2024-03-25T00:55:33;99481.16;;;8.54;74.71
4346;BME280;2186;49.866;7.986;2024-03-25T00:58:02;99476.94;;;8.49;75.19
4346;BME280;2186;49.866;7.986;2024-03-25T01:00:27;99476.00;;;8.23;75.45
4346;BME280;2186;49.866;7.986;2024-03-25T01:02:53;99480.97;;;8.32;75.44
4346;BME280;2186;49.866;7.986;2024-03-25T01:05:18;99469.78;;;8.24;75.75
4346;BME280;2186;49.866;7.986;2024-03-25T01:07:44;99473.53;;;8.17;76.21
4346;BME280;2186;49.866;7.986;2024-03-25T01:10:09;99475.13;;;8.23;76.14
4346;BME280;2186;49.866;7.986;2024-03-25T01:12:35;99473.28;;;8.25;74.86
4346;BME280;2186;49.866;7.986;2024-03-25T01:15:01;99472.94;;;8.37;74.44
4346;BME280;2186;49.866;7.986;2024-03-25T01:17:28;99474.06;;;8.28;74.36
4346;BME280;2186;49.866;7.986;2024-03-25T01:19:53;99469.03;;;8.19;74.88
4346;BME280;2186;49.866;7.986;2024-03-25T01:22:19;99470.28;;;8.09;75.08
4346;BME280;2186;49.866;7.986;2024-03-25T01:24:44;99473.38;;;8.22;74.95
4346;BME280;2186;49.866;7.986;2024-03-25T01:27:10;99480.31;;;8.26;74.19
4346;BME280;2186;49.866;7.986;2024-03-25T01:29:35;99469.84;;;8.23;74.00
4346;BME280;2186;49.866;7.986;2024-03-25T01:32:01;99464.13;;;8.07;74.84
4346;BME280;2186;49.866;7.986;2024-03-25T01:34:28;99471.31;;;8.03;75.61
4346;BME280;2186;49.866;7.986;2024-03-25T01:36:53;99463.69;;;7.93;75.38
4346;BME280;2186;49.866;7.986;2024-03-25T01:39:19;99467.56;;;7.83;75.86
4346;BME280;2186;49.866;7.986;2024-03-25T01:41:44;99467.22;;;7.93;76.68
4346;BME280;2186;49.866;7.986;2024-03-25T01:44:10;99463.59;;;7.97;76.02
4346;BME280;2186;49.866;7.986;2024-03-25T01:46:36;99466.28;;;7.94;76.87
4346;BME280;2186;49.866;7.986;2024-03-25T01:49:03;99465.69;;;7.86;76.94
4346;BME280;2186;49.866;7.986;2024-03-25T01:51:29;99461.97;;;7.92;77.86
4346;BME280;2186;49.866;7.986;2024-03-25T01:53:55;99470.88;;;7.89;76.98
4346;BME280;2186;49.866;7.986;2024-03-25T01:56:23;99469.31;;;8.12;76.78
4346;BME280;2186;49.866;7.986;2024-03-25T01:58:49;99467.38;;;8.17;75.67
4346;BME280;2186;49.866;7.986;2024-03-25T02:01:15;99470.41;;;8.05;76.15
4346;BME280;2186;49.866;7.986;2024-03-25T02:03:44;99469.34;;;7.82;77.80
4346;BME280;2186;49.866;7.986;2024-03-25T02:06:13;99469.63;;;7.73;77.69
4346;BME280;2186;49.866;7.986;2024-03-25T02:08:40;99470.28;;;7.80;78.01
4346;BME280;2186;49.866;7.986;2024-03-25T02:11:06;99472.16;;;7.76;78.29
4346;BME280;2186;49.866;7.986;2024-03-25T02:13:32;99465.84;;;7.80;77.95
4346;BME280;2186;49.866;7.986;2024-03-25T02:15:58;99474.66;;;7.82;78.24
4346;BME280;2186;49.866;7.986;2024-03-25T02:18:23;99473.56;;;7.88;77.85
4346;BME280;2186;49.866;7.986;2024-03-25T02:20:49;99469.00;;;7.93;78.27
4346;BME280;2186;49.866;7.986;2024-03-25T02:23:14;99470.00;;;7.89;78.00
4346;BME280;2186;49.866;7.986;2024-03-25T02:25:42;99461.91;;;7.95;78.36
4346;BME280;2186;49.866;7.986;2024-03-25T02:28:08;99465.75;;;7.85;78.53
4346;BME280;2186;49.866;7.986;2024-03-25T02:30:34;99470.47;;;7.73;78.59
4346;BME280;2186;49.866;7.986;2024-03-25T02:32:59;99469.53;;;7.76;78.98
4346;BME280;2186;49.866;7.986;2024-03-25T02:35:26;99470.28;;;8.08;78.25
4346;BME280;2186;49.866;7.986;2024-03-25T02:37:52;99472.00;;;7.81;78.00
4346;BME280;2186;49.866;7.986;2024-03-25T02:40:19;99475.03;;;7.98;77.57
4346;BME280;2186;49.866;7.986;2024-03-25T02:42:45;99480.88;;;7.80;77.71
4346;BME280;2186;49.866;7.986;2024-03-25T02:45:10;99473.28;;;7.69;77.77
4346;BME280;2186;49.866;7.986;2024-03-25T02:47:36;99478.53;;;7.70;78.51
4346;BME280;2186;49.866;7.986;2024-03-25T02:50:02;99480.50;;;7.62;77.83
4346;BME280;2186;49.866;7.986;2024-03-25T02:52:27;99484.28;;;7.54;77.91
4346;BME280;2186;49.866;7.986;2024-03-25T02:54:53;99484.63;;;7.43;78.47
4346;BME280;2186;49.866;7.986;2024-03-25T02:57:22;99480.69;;;7.27;79.05
4346;BME280;2186;49.866;7.986;2024-03-25T02:59:47;99475.63;;;7.78;77.82
4346;BME280;2186;49.866;7.986;2024-03-25T03:02:13;99472.06;;;7.50;78.64
4346;BME280;2186;49.866;7.986;2024-03-25T03:04:38;99480.28;;;7.40;78.64
4346;BME280;2186;49.866;7.986;2024-03-25T03:07:04;99468.50;;;7.21;79.42
4346;BME280;2186;49.866;7.986;2024-03-25T03:09:30;99468.69;;;7.15;80.52
4346;BME280;2186;49.866;7.986;2024-03-25T03:11:55;99466.31;;;7.04;80.81
4346;BME280;2186;49.866;7.986;2024-03-25T03:14:21;99468.66;;;6.82;81.80
4346;BME280;2186;49.866;7.986;2024-03-25T03:16:46;99482.19;;;6.72;83.04
4346;BME280;2186;49.866;7.986;2024-03-25T03:19:12;99475.53;;;6.56;82.51
4346;BME280;2186;49.866;7.986;2024-03-25T03:21:38;99475.84;;;6.43;83.86
4346;BME280;2186;49.866;7.986;2024-03-25T03:24:04;99478.19;;;6.20;84.12
4346;BME280;2186;49.866;7.986;2024-03-25T03:26:30;99480.66;;;5.90;85.20
4346;BME280;2186;49.866;7.986;2024-03-25T03:28:56;99478.94;;;5.86;86.39
4346;BME280;2186;49.866;7.986;2024-03-25T03:31:22;99486.44;;;5.66;86.28
4346;BME280;2186;49.866;7.986;2024-03-25T03:33:48;99492.69;;;5.60;87.03
4346;BME280;2186;49.866;7.986;2024-03-25T03:36:18;99487.66;;;5.50;86.67
4346;BME280;2186;49.866;7.986;2024-03-25T03:38:44;99487.28;;;5.25;87.70
4346;BME280;2186;49.866;7.986;2024-03-25T03:41:10;99491.44;;;5.37;87.58
4346;BME280;2186;49.866;7.986;2024-03-25T03:43:35;99489.13;;;5.21;88.47
4346;BME280;2186;49.866;7.986;2024-03-25T03:46:01;99491.13;;;5.09;87.76
4346;BME280;2186;49.866;7.986;2024-03-25T03:48:28;99491.44;;;4.92;88.23
4346;BME280;2186;49.866;7.986;2024-03-25T03:50:54;99489.78;;;4.86;88.90
4346;BME280;2186;49.866;7.986;2024-03-25T03:53:20;99490.69;;;4.85;88.91
4346;BME280;2186;49.866;7.986;2024-03-25T03:55:55;99491.66;;;4.80;89.39
4346;BME280;2186;49.866;7.986;2024-03-25T03:58:21;99485.63;;;4.73;89.11
4346;BME280;2186;49.866;7.986;2024-03-25T04:00:47;99478.66;;;4.70;89.08
4346;BME280;2186;49.866;7.986;2024-03-25T04:03:12;99479.72;;;4.60;89.58
4346;BME280;2186;49.866;7.986;2024-03-25T04:05:38;99480.66;;;4.58;89.82
4346;BME280;2186;49.866;7.986;2024-03-25T04:08:04;99482.19;;;4.69;89.92
4346;BME280;2186;49.866;7.986;2024-03-25T04:10:29;99474.59;;;4.51;90.30
4346;BME280;2186;49.866;7.986;2024-03-25T04:12:55;99479.25;;;4.37;90.15
4346;BME280;2186;49.866;7.986;2024-03-25T04:15:22;99485.31;;;4.42;89.93
4346;BME280;2186;49.866;7.986;2024-03-25T04:17:48;99475.94;;;4.24;89.96
4346;BME280;2186;49.866;7.986;2024-03-25T04:20:15;99478.72;;;4.15;90.60
4346;BME280;2186;49.866;7.986;2024-03-25T04:22:45;99469.94;;;4.16;91.45
4346;BME280;2186;49.866;7.986;2024-03-25T04:25:11;99470.81;;;4.16;90.89
4346;BME280;2186;49.866;7.986;2024-03-25T04:27:43;99466.50;;;4.11;91.39
4346;BME280;2186;49.866;7.986;2024-03-25T04:30:10;99469.25;;;4.05;90.44
4346;BME280;2186;49.866;7.986;2024-03-25T04:32:38;99472.91;;;3.95;90.67
4346;BME280;2186;49.866;7.986;2024-03-25T04:35:04;99468.44;;;4.01;91.54
4346;BME280;2186;49.866;7.986;2024-03-25T04:37:32;99476.38;;;3.95;91.66
4346;BME280;2186;49.866;7.986;2024-03-25T04:39:58;99477.66;;;3.68;91.77
4346;BME280;2186;49.866;7.986;2024-03-25T04:42:23;99479.97;;;3.91;92.11
4346;BME280;2186;49.866;7.986;2024-03-25T04:44:51;99479.28;;;3.78;92.38
4346;BME280;2186;49.866;7.986;2024-03-25T04:47:17;99486.31;;;3.76;91.52
4346;BME280;2186;49.866;7.986;2024-03-25T04:49:43;99492.50;;;3.74;91.33
4346;BME280;2186;49.866;7.986;2024-03-25T04:52:10;99492.41;;;3.78;91.34
4346;BME280;2186;49.866;7.986;2024-03-25T04:54:38;99489.25;;;3.53;92.02
4346;BME280;2186;49.866;7.986;2024-03-25T04:57:04;99494.47;;;3.58;92.09
4346;BME280;2186;49.866;7.986;2024-03-25T04:59:31;99491.88;;;3.56;92.21
4346;BME280;2186;49.866;7.986;2024-03-25T05:01:57;99486.56;;;3.60;92.31
4346;BME280;2186;49.866;7.986;2024-03-25T05:04:23;99494.28;;;3.69;92.73
4346;BME280;2186;49.866;7.986;2024-03-25T05:06:50;99494.59;;;3.47;92.10
4346;BME280;2186;49.866;7.986;2024-03-25T05:09:15;99499.50;;;3.73;93.03
4346;BME280;2186;49.866;7.986;2024-03-25T05:11:42;99502.31;;;3.60;94.72
4346;BME280;2186;49.866;7.986;2024-03-25T05:14:07;99497.88;;;3.63;94.75
4346;BME280;2186;49.866;7.986;2024-03-25T05:16:33;99503.09;;;3.66;94.44
4346;BME280;2186;49.866;7.986;2024-03-25T05:18:58;99510.03;;;3.73;94.05
4346;BME280;2186;49.866;7.986;2024-03-25T05:21:24;99505.00;;;3.55;92.77
4346;BME280;2186;49.866;7.986;2024-03-25T05:23:49;99508.41;;;3.63;93.03
4346;BME280;2186;49.866;7.986;2024-03-25T05:26:15;99506.44;;;3.77;93.32
4346;BME280;2186;49.866;7.986;2024-03-25T05:28:40;99514.22;;;3.86;93.72
4346;BME280;2186;49.866;7.986;2024-03-25T05:31:07;99515.22;;;3.76;92.81
4346;BME280;2186;49.866;7.986;2024-03-25T05:33:33;99503.22;;;3.59;92.90
4346;BME280;2186;49.866;7.986;2024-03-25T05:35:59;99511.13;;;3.57;92.51
4346;BME280;2186;49.866;7.986;2024-03-25T05:38:25;99508.56;;;3.49;92.54
4346;BME280;2186;49.866;7.986;2024-03-25T05:40:50;99510.22;;;3.60;92.53
4346;BME280;2186;49.866;7.986;2024-03-25T05:43:16;99510.38;;;3.46;91.87
4346;BME280;2186;49.866;7.986;2024-03-25T05:45:50;99504.84;;;4.27;90.84
4346;BME280;2186;49.866;7.986;2024-03-25T05:48:16;99507.34;;;3.76;90.35
4346;BME280;2186;49.866;7.986;2024-03-25T05:50:41;99503.84;;;3.76;92.12
4346;BME280;2186;49.866;7.986;2024-03-25T05:53:07;99507.56;;;3.61;92.28
4346;BME280;2186;49.866;7.986;2024-03-25T05:55:33;99505.56;;;3.78;91.80
4346;BME280;2186;49.866;7.986;2024-03-25T05:57:59;99502.75;;;3.91;92.17
4346;BME280;2186;49.866;7.986;2024-03-25T06:00:24;99511.59;;;3.83;91.49
4346;BME280;2186;49.866;7.986;2024-03-25T06:02:52;99511.50;;;3.93;92.13
4346;BME280;2186;49.866;7.986;2024-03-25T06:05:19;99509.09;;;3.76;91.37
4346;BME280;2186;49.866;7.986;2024-03-25T06:07:45;99507.25;;;3.84;91.44
4346;BME280;2186;49.866;7.986;2024-03-25T06:10:10;99503.56;;;3.94;91.55
4346;BME280;2186;49.866;7.986;2024-03-25T06:12:36;99507.69;;;4.13;92.00
4346;BME280;2186;49.866;7.986;2024-03-25T06:15:02;99516.56;;;4.05;93.09
4346;BME280;2186;49.866;7.986;2024-03-25T06:17:27;99510.97;;;4.28;93.34
4346;BME280;2186;49.866;7.986;2024-03-25T06:19:53;99517.81;;;4.38;92.95
4346;BME280;2186;49.866;7.986;2024-03-25T06:22:18;99519.59;;;4.36;92.70
4346;BME280;2186;49.866;7.986;2024-03-25T06:24:44;99522.81;;;4.55;92.71
4346;BME280;2186;49.866;7.986;2024-03-25T06:27:10;99535.69;;;4.71;92.79
4346;BME280;2186;49.866;7.986;2024-03-25T06:29:35;99525.66;;;4.92;91.94
4346;BME280;2186;49.866;7.986;2024-03-25T06:32:01;99537.66;;;5.06;90.74
4346;BME280;2186;49.866;7.986;2024-03-25T06:34:45;99529.59;;;5.16;90.38
4346;BME280;2186;49.866;7.986;2024-03-25T06:37:11;99534.72;;;5.25;90.57
4346;BME280;2186;49.866;7.986;2024-03-25T06:39:36;99535.03;;;5.53;90.10
4346;BME280;2186;49.866;7.986;2024-03-25T06:42:02;99535.31;;;5.39;89.26
4346;BME280;2186;49.866;7.986;2024-03-25T06:44:27;99534.84;;;5.62;88.52
4346;BME280;2186;49.866;7.986;2024-03-25T06:46:53;99528.09;;;5.89;88.71
4346;BME280;2186;49.866;7.986;2024-03-25T06:49:18;99529.03;;;5.86;87.83
4346;BME280;2186;49.866;7.986;2024-03-25T06:51:44;99535.13;;;5.88;88.34
4346;BME280;2186;49.866;7.986;2024-03-25T06:54:09;99530.47;;;6.04;88.03
4346;BME280;2186;49.866;7.986;2024-03-25T06:56:35;99543.59;;;6.06;87.97
4346;BME280;2186;49.866;7.986;2024-03-25T06:59:00;99537.13;;;6.20;87.32
4346;BME280;2186;49.866;7.986;2024-03-25T07:01:26;99532.63;;;6.24;86.55
4346;BME280;2186;49.866;7.986;2024-03-25T07:03:51;99534.44;;;6.22;87.43
4346;BME280;2186;49.866;7.986;2024-03-25T07:06:19;99530.03;;;6.22;87.61
4346;BME280;2186;49.866;7.986;2024-03-25T07:08:44;99530.81;;;6.26;87.48
4346;BME280;2186;49.866;7.986;2024-03-25T07:11:10;99537.19;;;6.53;87.75
4346;BME280;2186;49.866;7.986;2024-03-25T07:13:35;99545.91;;;6.57;86.11
4346;BME280;2186;49.866;7.986;2024-03-25T07:16:01;99545.78;;;6.63;85.34
4346;BME280;2186;49.866;7.986;2024-03-25T07:18:26;99545.56;;;6.72;83.16
4346;BME280;2186;49.866;7.986;2024-03-25T07:20:52;99543.41;;;6.88;83.00
4346;BME280;2186;49.866;7.986;2024-03-25T07:23:17;99548.69;;;6.88;82.92
4346;BME280;2186;49.866;7.986;2024-03-25T07:25:43;99554.16;;;7.14;82.45
4346;BME280;2186;49.866;7.986;2024-03-25T07:28:09;99549.88;;;7.08;82.55
4346;BME280;2186;49.866;7.986;2024-03-25T07:30:35;99545.91;;;7.25;80.91
4346;BME280;2186;49.866;7.986;2024-03-25T07:33:00;99540.63;;;7.25;79.65
4346;BME280;2186;49.866;7.986;2024-03-25T07:35:26;99542.78;;;7.10;80.44
4346;BME280;2186;49.866;7.986;2024-03-25T07:37:52;99535.09;;;7.34;80.81
4346;BME280;2186;49.866;7.986;2024-03-25T07:40:18;99533.69;;;7.21;81.05
4346;BME280;2186;49.866;7.986;2024-03-25T07:42:44;99534.75;;;7.46;79.37
4346;BME280;2186;49.866;7.986;2024-03-25T07:45:09;99531.00;;;7.53;79.56
4346;BME280;2186;49.866;7.986;2024-03-25T07:47:35;99532.91;;;7.79;78.13
4346;BME280;2186;49.866;7.986;2024-03-25T07:50:01;99525.00;;;8.09;75.95
4346;BME280;2186;49.866;7.986;2024-03-25T07:52:27;99530.34;;;8.06;75.25
4346;BME280;2186;49.866;7.986;2024-03-25T07:54:53;99525.16;;;8.02;76.56
4346;BME280;2186;49.866;7.986;2024-03-25T07:57:19;99522.25;;;8.12;77.26
4346;BME280;2186;49.866;7.986;2024-03-25T07:59:47;99513.19;;;8.19;76.61
4346;BME280;2186;49.866;7.986;2024-03-25T08:02:13;99511.56;;;8.43;76.22
4346;BME280;2186;49.866;7.986;2024-03-25T08:04:39;99515.34;;;8.06;75.95
4346;BME280;2186;49.866;7.986;2024-03-25T08:07:04;99519.75;;;8.35;75.50
4346;BME280;2186;49.866;7.986;2024-03-25T08:09:30;99509.34;;;8.57;75.30
4346;BME280;2186;49.866;7.986;2024-03-25T08:11:56;99509.38;;;8.55;74.35
4346;BME280;2186;49.866;7.986;2024-03-25T08:14:21;99509.84;;;8.68;75.80
4346;BME280;2186;49.866;7.986;2024-03-25T08:16:47;99510.72;;;8.69;77.82
4346;BME280;2186;49.866;7.986;2024-03-25T08:19:13;99512.28;;;8.74;77.47
4346;BME280;2186;49.866;7.986;2024-03-25T08:21:38;99521.78;;;8.55;77.07
4346;BME280;2186;49.866;7.986;2024-03-25T08:24:04;99518.16;;;8.57;78.39
4346;BME280;2186;49.866;7.986;2024-03-25T08:26:30;99514.78;;;9.05;77.00
4346;BME280;2186;49.866;7.986;2024-03-25T08:28:55;99520.25;;;8.99;78.38
4346;BME280;2186;49.866;7.986;2024-03-25T08:31:21;99516.66;;;9.27;77.98
4346;BME280;2186;49.866;7.986;2024-03-25T08:33:46;99518.41;;;9.51;77.01
4346;BME280;2186;49.866;7.986;2024-03-25T08:36:12;99513.81;;;9.31;76.52
4346;BME280;2186;49.866;7.986;2024-03-25T08:38:37;99513.44;;;9.42;75.67
4346;BME280;2186;49.866;7.986;2024-03-25T08:41:03;99522.06;;;9.48;76.90
4346;BME280;2186;49.866;7.986;2024-03-25T08:43:29;99511.16;;;10.03;74.14
4346;BME280;2186;49.866;7.986;2024-03-25T08:45:55;99508.63;;;9.76;73.34
4346;BME280;2186;49.866;7.986;2024-03-25T08:48:21;99510.41;;;9.76;72.34
4346;BME280;2186;49.866;7.986;2024-03-25T08:50:46;99502.94;;;10.09;72.09
4346;BME280;2186;49.866;7.986;2024-03-25T08:53:12;99510.97;;;9.84;74.86
4346;BME280;2186;49.866;7.986;2024-03-25T08:55:38;99508.16;;;9.65;75.63
4346;BME280;2186;49.866;7.986;2024-03-25T08:58:03;99505.38;;;9.92;74.96
4346;BME280;2186;49.866;7.986;2024-03-25T09:00:29;99497.44;;;10.14;73.58
4346;BME280;2186;49.866;7.986;2024-03-25T09:02:54;99493.91;;;10.58;71.52
4346;BME280;2186;49.866;7.986;2024-03-25T09:05:20;99488.03;;;10.28;70.82
4346;BME280;2186;49.866;7.986;2024-03-25T09:07:49;99491.09;;;10.39;70.73
4346;BME280;2186;49.866;7.986;2024-03-25T09:10:20;99488.13;;;10.69;70.47
4346;BME280;2186;49.866;7.986;2024-03-25T09:13:04;99489.50;;;10.35;70.76
4346;BME280;2186;49.866;7.986;2024-03-25T09:15:30;99481.66;;;10.32;71.59
4346;BME280;2186;49.866;7.986;2024-03-25T09:17:55;99486.66;;;10.40;71.03
4346;BME280;2186;49.866;7.986;2024-03-25T09:20:21;99481.88;;;10.70;69.83
4346;BME280;2186;49.866;7.986;2024-03-25T09:22:47;99476.25;;;10.98;67.45
4346;BME280;2186;49.866;7.986;2024-03-25T09:25:14;99466.28;;;10.83;64.93
4346;BME280;2186;49.866;7.986;2024-03-25T09:27:40;99459.75;;;10.90;67.89
4346;BME280;2186;49.866;7.986;2024-03-25T09:30:06;99459.84;;;10.88;66.87
4346;BME280;2186;49.866;7.986;2024-03-25T09:32:34;99455.97;;;10.95;62.97
4346;BME280;2186;49.866;7.986;2024-03-25T09:35:00;99454.81;;;11.61;62.29
4346;BME280;2186;49.866;7.986;2024-03-25T09:37:26;99445.09;;;11.78;61.03
4346;BME280;2186;49.866;7.986;2024-03-25T09:39:52;99446.50;;;11.09;62.72
4346;BME280;2186;49.866;7.986;2024-03-25T09:42:47;99444.78;;;11.28;61.55
4346;BME280;2186;49.866;7.986;2024-03-25T09:45:16;99439.19;;;11.72;61.92
4346;BME280;2186;49.866;7.986;2024-03-25T09:47:45;99439.38;;;11.30;61.46
4346;BME280;2186;49.866;7.986;2024-03-25T09:50:12;99435.56;;;11.35;62.70
4346;BME280;2186;49.866;7.986;2024-03-25T09:52:39;99426.59;;;11.38;61.35
4346;BME280;2186;49.866;7.986;2024-03-25T09:55:05;99429.38;;;11.16;62.61
4346;BME280;2186;49.866;7.986;2024-03-25T09:57:32;99421.00;;;11.44;61.67
4346;BME280;2186;49.866;7.986;2024-03-25T09:59:57;99419.63;;;11.73;60.94
4346;BME280;2186;49.866;7.986;2024-03-25T10:02:23;99416.53;;;11.44;60.57
4346;BME280;2186;49.866;7.986;2024-03-25T10:04:52;99411.63;;;11.35;61.63
4346;BME280;2186;49.866;7.986;2024-03-25T10:07:24;99407.19;;;11.73;59.14
4346;BME280;2186;49.866;7.986;2024-03-25T10:09:53;99409.53;;;11.81;57.89
4346;BME280;2186;49.866;7.986;2024-03-25T10:12:19;99410.44;;;12.35;56.13
4346;BME280;2186;49.866;7.986;2024-03-25T10:14:45;99411.38;;;11.98;54.66
4346;BME280;2186;49.866;7.986;2024-03-25T10:17:11;99398.84;;;12.17;54.24
4346;BME280;2186;49.866;7.986;2024-03-25T10:19:36;99395.75;;;12.26;55.41
4346;BME280;2186;49.866;7.986;2024-03-25T10:22:07;99398.03;;;12.34;54.37
4346;BME280;2186;49.866;7.986;2024-03-25T10:24:40;99387.84;;;12.77;53.71
4346;BME280;2186;49.866;7.986;2024-03-25T10:27:06;99380.53;;;12.28;54.05
4346;BME280;2186;49.866;7.986;2024-03-25T10:29:34;99385.34;;;12.39;53.32
4346;BME280;2186;49.866;7.986;2024-03-25T10:32:01;99385.59;;;12.52;54.42
4346;BME280;2186;49.866;7.986;2024-03-25T10:34:27;99377.09;;;13.11;52.82
4346;BME280;2186;49.866;7.986;2024-03-25T10:36:56;99375.44;;;12.93;51.52
4346;BME280;2186;49.866;7.986;2024-03-25T10:39:26;99370.19;;;13.24;52.18
4346;BME280;2186;49.866;7.986;2024-03-25T10:41:55;99362.47;;;13.20;52.75
4346;BME280;2186;49.866;7.986;2024-03-25T10:44:22;99362.75;;;13.62;50.85
4346;BME280;2186;49.866;7.986;2024-03-25T10:46:51;99367.41;;;13.59;50.20
4346;BME280;2186;49.866;7.986;2024-03-25T10:49:27;99350.66;;;13.24;49.04
4346;BME280;2186;49.866;7.986;2024-03-25T10:51:58;99357.69;;;13.58;49.94
4346;BME280;2186;49.866;7.986;2024-03-25T10:54:28;99348.34;;;13.97;46.99
4346;BME280;2186;49.866;7.986;2024-03-25T10:56:57;99352.22;;;13.91;46.86
4346;BME280;2186;49.866;7.986;2024-03-25T10:59:24;99340.03;;;13.71;46.57
4346;BME280;2186;49.866;7.986;2024-03-25T11:01:50;99335.59;;;13.54;45.86
4346;BME280;2186;49.866;7.986;2024-03-25T11:04:15;99331.06;;;13.08;47.06
4346;BME280;2186;49.866;7.986;2024-03-25T11:06:41;99328.41;;;13.08;47.07
4346;BME280;2186;49.866;7.986;2024-03-25T11:09:06;99326.66;;;13.71;48.57
4346;BME280;2186;49.866;7.986;2024-03-25T11:11:35;99325.88;;;13.22;47.76
4346;BME280;2186;49.866;7.986;2024-03-25T11:14:04;99319.75;;;13.99;46.62
4346;BME280;2186;49.866;7.986;2024-03-25T11:16:30;99304.75;;;13.80;47.47
4346;BME280;2186;49.866;7.986;2024-03-25T11:19:03;99298.75;;;14.37;47.26
4346;BME280;2186;49.866;7.986;2024-03-25T11:21:29;99298.63;;;14.24;47.39
4346;BME280;2186;49.866;7.986;2024-03-25T11:23:54;99291.78;;;13.74;45.96
4346;BME280;2186;49.866;7.986;2024-03-25T11:26:21;99289.16;;;14.18;47.50
4346;BME280;2186;49.866;7.986;2024-03-25T11:28:48;99293.22;;;14.10;46.71
4346;BME280;2186;49.866;7.986;2024-03-25T11:31:15;99293.59;;;14.04;45.67
4346;BME280;2186;49.866;7.986;2024-03-25T11:33:41;99296.25;;;13.42;45.89
4346;BME280;2186;49.866;7.986;2024-03-25T11:36:07;99289.34;;;13.54;46.96
4346;BME280;2186;49.866;7.986;2024-03-25T11:38:33;99287.22;;;14.06;49.02
4346;BME280;2186;49.866;7.986;2024-03-25T11:41:00;99283.47;;;13.79;48.79
4346;BME280;2186;49.866;7.986;2024-03-25T11:43:26;99271.91;;;13.48;48.76
4346;BME280;2186;49.866;7.986;2024-03-25T11:45:51;99263.13;;;13.92;48.37
4346;BME280;2186;49.866;7.986;2024-03-25T11:48:19;99265.69;;;14.23;47.00
4346;BME280;2186;49.866;7.986;2024-03-25T11:50:46;99259.47;;;14.53;46.87
4346;BME280;2186;49.866;7.986;2024-03-25T11:53:13;99254.16;;;13.93;46.00
4346;BME280;2186;49.866;7.986;2024-03-25T11:55:39;99250.47;;;14.10;45.70
4346;BME280;2186;49.866;7.986;2024-03-25T11:58:05;99254.13;;;13.63;45.51
4346;BME280;2186;49.866;7.986;2024-03-25T12:00:31;99244.88;;;13.69;45.71
4346;BME280;2186;49.866;7.986;2024-03-25T12:02:57;99244.09;;;13.82;45.57
4346;BME280;2186;49.866;7.986;2024-03-25T12:05:22;99237.81;;;14.13;44.68
4346;BME280;2186;49.866;7.986;2024-03-25T12:07:48;99238.44;;;14.47;43.67
4346;BME280;2186;49.866;7.986;2024-03-25T12:10:15;99241.56;;;14.39;44.80
4346;BME280;2186;49.866;7.986;2024-03-25T12:12:59;99236.94;;;14.13;44.40
4346;BME280;2186;49.866;7.986;2024-03-25T12:15:25;99229.19;;;13.48;47.05
4346;BME280;2186;49.866;7.986;2024-03-25T12:17:52;99232.06;;;14.19;45.56
4346;BME280;2186;49.866;7.986;2024-03-25T12:20:17;99228.31;;;14.08;45.86
4346;BME280;2186;49.866;7.986;2024-03-25T12:22:43;99225.28;;;13.84;44.78
4346;BME280;2186;49.866;7.986;2024-03-25T12:25:09;99215.50;;;13.39;44.21
4346;BME280;2186;49.866;7.986;2024-03-25T12:27:39;99211.13;;;14.42;43.77
4346;BME280;2186;49.866;7.986;2024-03-25T12:30:09;99206.66;;;14.71;43.64
4346;BME280;2186;49.866;7.986;2024-03-25T12:32:39;99190.06;;;14.07;44.81
4346;BME280;2186;49.866;7.986;2024-03-25T12:35:08;99181.59;;;14.15;44.75
4346;BME280;2186;49.866;7.986;2024-03-25T12:37:33;99180.53;;;14.89;43.01
4346;BME280;2186;49.866;7.986;2024-03-25T12:39:59;99177.97;;;14.30;42.79
4346;BME280;2186;49.866;7.986;2024-03-25T12:42:25;99176.75;;;13.00;44.46
4346;BME280;2186;49.866;7.986;2024-03-25T12:44:52;99168.56;;;12.87;44.44
4346;BME280;2186;49.866;7.986;2024-03-25T12:47:18;99161.63;;;13.62;44.90
4346;BME280;2186;49.866;7.986;2024-03-25T12:49:44;99153.50;;;13.63;44.42
4346;BME280;2186;49.866;7.986;2024-03-25T12:52:10;99152.59;;;13.03;44.97
4346;BME280;2186;49.866;7.986;2024-03-25T12:54:35;99143.47;;;12.91;44.93
4346;BME280;2186;49.866;7.986;2024-03-25T12:57:01;99147.06;;;13.06;45.10
4346;BME280;2186;49.866;7.986;2024-03-25T12:59:27;99141.28;;;13.14;43.50
4346;BME280;2186;49.866;7.986;2024-03-25T13:01:53;99138.97;;;13.08;43.95
4346;BME280;2186;49.866;7.986;2024-03-25T13:04:19;99135.28;;;12.94;44.59
4346;BME280;2186;49.866;7.986;2024-03-25T13:06:44;99119.72;;;13.18;44.80
4346;BME280;2186;49.866;7.986;2024-03-25T13:09:10;99121.59;;;13.76;43.33
4346;BME280;2186;49.866;7.986;2024-03-25T13:11:36;99120.09;;;13.26;42.72
4346;BME280;2186;49.866;7.986;2024-03-25T13:14:03;99120.97;;;13.11;44.29
4346;BME280;2186;49.866;7.986;2024-03-25T13:16:32;99107.94;;;13.37;43.31
4346;BME280;2186;49.866;7.986;2024-03-25T13:18:58;99106.69;;;13.58;44.54
4346;BME280;2186;49.866;7.986;2024-03-25T13:21:24;99101.97;;;13.01;45.61
4346;BME280;2186;49.866;7.986;2024-03-25T13:23:52;99086.53;;;13.52;44.97
4346;BME280;2186;49.866;7.986;2024-03-25T13:26:17;99081.53;;;13.90;48.68